Maxton, MI

2:58 AM EST on January 17, 2017 (GMT -0500)
Potagannissing Bay Front | | Change Station

Elev 587 ft 46.06 °N, 83.67 °W | Updated 8 seconds ago

Partly Cloudy
Partly Cloudy
29.0 °F
Feels Like 23 °F
N
6.0
Wind Variable Wind from ENE
Gusts 8.0 mph

Today
High -- | Low -- °F
--% Chance of Precip.
Yesterday
High -- | Low -- °F
Precip. -- in
Pressure 30.07 in
Visibility 10.0 miles
Clouds Clear
Windchill 23 °F
Dew Point 28 °F
Humidity 95%
Rainfall 0.00 in
Snow Depth Not available.
8:11 AM 5:18 PM
Waning Gibbous, 74% visible
METAR KDRM 170735Z AUTO 00000KT 10SM CLR M01/M03 A3007 RMK AO2 T10151026
Pressure 30.07 in
Visibility 10.0 miles
Clouds Clear
Windchill 23 °F
Dew Point 28 °F
Humidity 95%
Rainfall 0.00 in
Snow Depth Not available.
8:11 AM 5:18 PM
Waning Gibbous, 74% visible
METAR KDRM 170735Z AUTO 00000KT 10SM CLR M01/M03 A3007 RMK AO2 T10151026

Get Your Daily Forecast Email!

Thanks for signing up!

Be on the lookout for a verification email in your inbox.

You'll start receiving the daily forecast at 8 AM.

×

10-Day Weather Forecast

Almanac

Astronomy

Jan. 17, 2017 Rise Set
Actual Time
Civil Twilight
Nautical Twilight
Astronomical Twilight
Moon
Length of Visible Light
Length of Day
Tomorrow will be .
, % of the Moon is Illuminated

Today's Extremes

State Highs State Lows

Community

WunderPhotos

Upload Photos

1,962,540 photos uploaded!

WunderBlog® & News

Nearby

Air Quality

  Air Quality AQ Index Pollutant
Not available.

Snow Depth

Station Depth Elevation

Earthquake Activity

City Distance Mag. Time & Date
Minimum magnitude displayed is 2.5.

Coastal Water Temperatures

Place Temperature

Stations

Nearby Weather Stations

Station Location Temp. Windchill Dew Point Humidity Wind Precip. Elev Updated Type
                   

Watches & Warnings

There are currently no watches in effect.